sensor_id;sensor_type;location;lat;lon;timestamp;pressure;altitude;pressure_sealevel;temperature;humidity
13387;BME280;6763;48.524;9.044;2023-04-06T00:01:22;98037.88;;;5.01;44.84
13387;BME280;6763;48.524;9.044;2023-04-06T00:03:48;98036.97;;;4.94;44.87
13387;BME280;6763;48.524;9.044;2023-04-06T00:06:13;98037.78;;;4.90;44.81
13387;BME280;6763;48.524;9.044;2023-04-06T00:08:38;98036.06;;;4.86;44.86
13387;BME280;6763;48.524;9.044;2023-04-06T00:11:04;98037.72;;;4.83;44.98
13387;BME280;6763;48.524;9.044;2023-04-06T00:13:29;98030.88;;;4.79;44.99
13387;BME280;6763;48.524;9.044;2023-04-06T00:15:55;98030.84;;;4.74;44.77
13387;BME280;6763;48.524;9.044;2023-04-06T00:18:21;98019.66;;;4.68;45.12
13387;BME280;6763;48.524;9.044;2023-04-06T00:20:47;98022.22;;;4.66;45.11
13387;BME280;6763;48.524;9.044;2023-04-06T00:23:12;98020.47;;;4.61;45.07
13387;BME280;6763;48.524;9.044;2023-04-06T00:25:38;98022.22;;;4.63;45.20
13387;BME280;6763;48.524;9.044;2023-04-06T00:28:03;98015.34;;;4.62;45.05
13387;BME280;6763;48.524;9.044;2023-04-06T00:30:28;98020.47;;;4.61;45.07
13387;BME280;6763;48.524;9.044;2023-04-06T00:32:54;98022.16;;;4.59;44.92
13387;BME280;6763;48.524;9.044;2023-04-06T00:35:20;98022.97;;;4.55;45.16
13387;BME280;6763;48.524;9.044;2023-04-06T00:37:46;98021.25;;;4.51;45.17
13387;BME280;6763;48.524;9.044;2023-04-06T00:40:13;98021.22;;;4.48;45.42
13387;BME280;6763;48.524;9.044;2023-04-06T00:42:38;98011.78;;;4.45;45.37
13387;BME280;6763;48.524;9.044;2023-04-06T00:45:04;98015.16;;;4.41;45.39
13387;BME280;6763;48.524;9.044;2023-04-06T00:47:29;98016.84;;;4.37;45.58
13387;BME280;6763;48.524;9.044;2023-04-06T00:49:55;98017.69;;;4.35;45.77
13387;BME280;6763;48.524;9.044;2023-04-06T00:52:21;98013.41;;;4.34;46.04
13387;BME280;6763;48.524;9.044;2023-04-06T00:54:48;98014.22;;;4.31;45.64
13387;BME280;6763;48.524;9.044;2023-04-06T00:57:14;98007.38;;;4.27;46.18
13387;BME280;6763;48.524;9.044;2023-04-06T00:59:40;98008.16;;;4.22;46.37
13387;BME280;6763;48.524;9.044;2023-04-06T01:02:06;98010.69;;;4.19;46.26
13387;BME280;6763;48.524;9.044;2023-04-06T01:04:32;98014.03;;;4.13;46.14
13387;BME280;6763;48.524;9.044;2023-04-06T01:06:57;98010.63;;;4.10;46.12
13387;BME280;6763;48.524;9.044;2023-04-06T01:09:23;98012.22;;;4.05;46.49
13387;BME280;6763;48.524;9.044;2023-04-06T01:11:48;98002.00;;;4.02;46.23
13387;BME280;6763;48.524;9.044;2023-04-06T01:14:13;98007.91;;;3.98;46.56
13387;BME280;6763;48.524;9.044;2023-04-06T01:16:41;98005.31;;;3.95;46.85
13387;BME280;6763;48.524;9.044;2023-04-06T01:19:08;98007.88;;;3.95;46.71
13387;BME280;6763;48.524;9.044;2023-04-06T01:21:34;98009.56;;;3.93;46.76
13387;BME280;6763;48.524;9.044;2023-04-06T01:24:00;97995.88;;;3.92;46.70
13387;BME280;6763;48.524;9.044;2023-04-06T01:26:25;97995.06;;;3.92;46.78
13387;BME280;6763;48.524;9.044;2023-04-06T01:28:52;97995.06;;;3.93;46.90
13387;BME280;6763;48.524;9.044;2023-04-06T01:31:17;97988.22;;;3.91;47.28
13387;BME280;6763;48.524;9.044;2023-04-06T01:33:43;97998.41;;;3.89;47.33
13387;BME280;6763;48.524;9.044;2023-04-06T01:36:08;97992.41;;;3.87;47.42
13387;BME280;6763;48.524;9.044;2023-04-06T01:38:34;97991.56;;;3.84;47.49
13387;BME280;6763;48.524;9.044;2023-04-06T01:40:59;97997.50;;;3.81;47.40
13387;BME280;6763;48.524;9.044;2023-04-06T01:43:25;97992.34;;;3.78;47.14
13387;BME280;6763;48.524;9.044;2023-04-06T01:45:51;97982.88;;;3.74;47.17
13387;BME280;6763;48.524;9.044;2023-04-06T01:48:16;97993.94;;;3.71;47.32
13387;BME280;6763;48.524;9.044;2023-04-06T01:50:42;97987.97;;;3.69;47.66
13387;BME280;6763;48.524;9.044;2023-04-06T01:53:07;97984.56;;;3.70;47.92
13387;BME280;6763;48.524;9.044;2023-04-06T01:55:33;97994.81;;;3.72;47.58
13387;BME280;6763;48.524;9.044;2023-04-06T01:57:58;97990.53;;;3.71;48.06
13387;BME280;6763;48.524;9.044;2023-04-06T02:00:23;97987.97;;;3.69;48.44
13387;BME280;6763;48.524;9.044;2023-04-06T02:02:54;97989.66;;;3.69;48.29
13387;BME280;6763;48.524;9.044;2023-04-06T02:05:19;97990.53;;;3.68;48.67
13387;BME280;6763;48.524;9.044;2023-04-06T02:07:45;97986.22;;;3.65;48.43
13387;BME280;6763;48.524;9.044;2023-04-06T02:10:12;97984.50;;;3.63;48.23
13387;BME280;6763;48.524;9.044;2023-04-06T02:12:38;97984.44;;;3.60;48.34
13387;BME280;6763;48.524;9.044;2023-04-06T02:15:04;97990.34;;;3.54;48.52
13387;BME280;6763;48.524;9.044;2023-04-06T02:17:29;97982.63;;;3.50;48.78
13387;BME280;6763;48.524;9.044;2023-04-06T02:19:55;97980.88;;;3.47;48.66
13387;BME280;6763;48.524;9.044;2023-04-06T02:22:20;97973.19;;;3.44;48.23
13387;BME280;6763;48.524;9.044;2023-04-06T02:24:46;97978.25;;;3.40;48.36
13387;BME280;6763;48.524;9.044;2023-04-06T02:27:12;97980.81;;;3.40;49.05
13387;BME280;6763;48.524;9.044;2023-04-06T02:29:37;97978.19;;;3.37;48.65
13387;BME280;6763;48.524;9.044;2023-04-06T02:32:03;97972.19;;;3.33;48.97
13387;BME280;6763;48.524;9.044;2023-04-06T02:34:28;97977.28;;;3.32;48.91
13387;BME280;6763;48.524;9.044;2023-04-06T02:36:55;97976.41;;;3.31;48.90
13387;BME280;6763;48.524;9.044;2023-04-06T02:39:20;97972.13;;;3.29;48.74
13387;BME280;6763;48.524;9.044;2023-04-06T02:41:45;97980.63;;;3.26;48.49
13387;BME280;6763;48.524;9.044;2023-04-06T02:44:11;97978.03;;;3.25;49.52
13387;BME280;6763;48.524;9.044;2023-04-06T02:46:36;97984.00;;;3.24;49.55
13387;BME280;6763;48.524;9.044;2023-04-06T02:49:02;97981.34;;;3.19;49.59
13387;BME280;6763;48.524;9.044;2023-04-06T02:51:27;97973.63;;;3.14;49.08
13387;BME280;6763;48.524;9.044;2023-04-06T02:53:53;97979.56;;;3.10;49.44
13387;BME280;6763;48.524;9.044;2023-04-06T02:56:18;97976.06;;;3.05;49.36
13387;BME280;6763;48.524;9.044;2023-04-06T02:58:46;97970.03;;;3.00;49.93
13387;BME280;6763;48.524;9.044;2023-04-06T03:01:11;97967.44;;;2.99;49.80
13387;BME280;6763;48.524;9.044;2023-04-06T03:03:37;97975.06;;;2.96;50.07
13387;BME280;6763;48.524;9.044;2023-04-06T03:06:02;97975.00;;;2.91;49.97
13387;BME280;6763;48.524;9.044;2023-04-06T03:08:28;97975.00;;;2.90;49.95
13387;BME280;6763;48.524;9.044;2023-04-06T03:10:54;97974.94;;;2.85;50.02
13387;BME280;6763;48.524;9.044;2023-04-06T03:13:20;97964.63;;;2.79;49.92
13387;BME280;6763;48.524;9.044;2023-04-06T03:15:45;97969.69;;;2.78;50.17
13387;BME280;6763;48.524;9.044;2023-04-06T03:18:13;97972.25;;;2.76;49.82
13387;BME280;6763;48.524;9.044;2023-04-06T03:20:38;97973.00;;;2.71;50.42
13387;BME280;6763;48.524;9.044;2023-04-06T03:23:04;97976.41;;;2.71;50.10
13387;BME280;6763;48.524;9.044;2023-04-06T03:25:29;97975.56;;;2.71;50.46
13387;BME280;6763;48.524;9.044;2023-04-06T03:27:55;97968.75;;;2.70;50.56
13387;BME280;6763;48.524;9.044;2023-04-06T03:30:21;97970.44;;;2.69;50.45
13387;BME280;6763;48.524;9.044;2023-04-06T03:32:46;97978.88;;;2.64;50.41
13387;BME280;6763;48.524;9.044;2023-04-06T03:35:11;97981.38;;;2.62;50.83
13387;BME280;6763;48.524;9.044;2023-04-06T03:37:37;97983.13;;;2.63;50.82
13387;BME280;6763;48.524;9.044;2023-04-06T03:40:03;98000.13;;;2.61;51.27
13387;BME280;6763;48.524;9.044;2023-04-06T03:42:29;97985.66;;;2.62;50.90
13387;BME280;6763;48.524;9.044;2023-04-06T03:44:54;97989.03;;;2.61;50.73
13387;BME280;6763;48.524;9.044;2023-04-06T03:47:20;97989.84;;;2.57;50.54
13387;BME280;6763;48.524;9.044;2023-04-06T03:49:45;97989.03;;;2.59;50.74
13387;BME280;6763;48.524;9.044;2023-04-06T03:52:11;97988.97;;;2.56;50.85
13387;BME280;6763;48.524;9.044;2023-04-06T03:54:36;97991.47;;;2.53;51.10
13387;BME280;6763;48.524;9.044;2023-04-06T03:57:02;97994.00;;;2.52;51.20
13387;BME280;6763;48.524;9.044;2023-04-06T03:59:27;97988.84;;;2.50;50.71
13387;BME280;6763;48.524;9.044;2023-04-06T04:01:52;97991.34;;;2.45;50.75
13387;BME280;6763;48.524;9.044;2023-04-06T04:04:18;97989.59;;;2.43;50.85
13387;BME280;6763;48.524;9.044;2023-04-06T04:06:43;97993.78;;;2.39;51.14
13387;BME280;6763;48.524;9.044;2023-04-06T04:09:09;97986.19;;;2.41;51.54
13387;BME280;6763;48.524;9.044;2023-04-06T04:11:34;97996.38;;;2.41;51.60
13387;BME280;6763;48.524;9.044;2023-04-06T04:14:00;97994.66;;;2.41;51.12
13387;BME280;6763;48.524;9.044;2023-04-06T04:16:25;97991.28;;;2.41;51.38
13387;BME280;6763;48.524;9.044;2023-04-06T04:18:50;97994.66;;;2.40;51.12
13387;BME280;6763;48.524;9.044;2023-04-06T04:21:16;98000.59;;;2.39;51.48
13387;BME280;6763;48.524;9.044;2023-04-06T04:23:41;97999.75;;;2.38;51.34
13387;BME280;6763;48.524;9.044;2023-04-06T04:26:06;97997.16;;;2.37;51.38
13387;BME280;6763;48.524;9.044;2023-04-06T04:28:32;97996.34;;;2.38;50.82
13387;BME280;6763;48.524;9.044;2023-04-06T04:30:57;97997.97;;;2.34;50.74
13387;BME280;6763;48.524;9.044;2023-04-06T04:33:22;98006.50;;;2.35;51.64
13387;BME280;6763;48.524;9.044;2023-04-06T04:35:48;98007.31;;;2.34;51.16
13387;BME280;6763;48.524;9.044;2023-04-06T04:38:13;98000.53;;;2.34;51.20
13387;BME280;6763;48.524;9.044;2023-04-06T04:40:39;98009.88;;;2.34;50.83
13387;BME280;6763;48.524;9.044;2023-04-06T04:43:04;98009.88;;;2.34;51.23
13387;BME280;6763;48.524;9.044;2023-04-06T04:45:29;98009.88;;;2.34;50.57
13387;BME280;6763;48.524;9.044;2023-04-06T04:47:55;98004.81;;;2.35;51.41
13387;BME280;6763;48.524;9.044;2023-04-06T04:50:20;98009.09;;;2.38;51.29
13387;BME280;6763;48.524;9.044;2023-04-06T04:52:46;98007.44;;;2.40;51.01
13387;BME280;6763;48.524;9.044;2023-04-06T04:55:11;98012.59;;;2.43;52.09
13387;BME280;6763;48.524;9.044;2023-04-06T04:57:37;98009.22;;;2.45;51.50
13387;BME280;6763;48.524;9.044;2023-04-06T05:00:02;98023.75;;;2.49;51.87
13387;BME280;6763;48.524;9.044;2023-04-06T05:02:28;98015.28;;;2.52;51.57
13387;BME280;6763;48.524;9.044;2023-04-06T05:04:53;98018.78;;;2.57;51.47
13387;BME280;6763;48.524;9.044;2023-04-06T05:07:19;98020.50;;;2.60;51.81
13387;BME280;6763;48.524;9.044;2023-04-06T05:09:46;98020.56;;;2.63;51.81
13387;BME280;6763;48.524;9.044;2023-04-06T05:12:11;98017.19;;;2.65;51.44
13387;BME280;6763;48.524;9.044;2023-04-06T05:14:36;98026.66;;;2.69;51.76
13387;BME280;6763;48.524;9.044;2023-04-06T05:17:02;98025.91;;;2.75;52.08
13387;BME280;6763;48.524;9.044;2023-04-06T05:19:27;98031.03;;;2.78;51.89
13387;BME280;6763;48.524;9.044;2023-04-06T05:21:53;98018.31;;;2.81;51.80
13387;BME280;6763;48.524;9.044;2023-04-06T05:24:18;98026.03;;;2.84;51.78
13387;BME280;6763;48.524;9.044;2023-04-06T05:26:43;98031.19;;;2.85;51.42
13387;BME280;6763;48.524;9.044;2023-04-06T05:29:10;98034.66;;;2.90;51.58
13387;BME280;6763;48.524;9.044;2023-04-06T05:31:36;98028.72;;;2.93;51.32
13387;BME280;6763;48.524;9.044;2023-04-06T05:34:01;98032.22;;;2.98;51.50
13387;BME280;6763;48.524;9.044;2023-04-06T05:36:26;98032.28;;;3.02;51.52
13387;BME280;6763;48.524;9.044;2023-04-06T05:38:52;98035.75;;;3.06;51.25
13387;BME280;6763;48.524;9.044;2023-04-06T05:41:18;98042.66;;;3.14;51.51
13387;BME280;6763;48.524;9.044;2023-04-06T05:43:43;98045.34;;;3.22;51.74
13387;BME280;6763;48.524;9.044;2023-04-06T05:46:09;98049.72;;;3.29;51.16
13387;BME280;6763;48.524;9.044;2023-04-06T05:48:35;98042.97;;;3.37;51.45
13387;BME280;6763;48.524;9.044;2023-04-06T05:51:01;98039.69;;;3.44;51.14
13387;BME280;6763;48.524;9.044;2023-04-06T05:53:27;98047.47;;;3.52;50.63
13387;BME280;6763;48.524;9.044;2023-04-06T05:55:54;98043.25;;;3.57;50.96
13387;BME280;6763;48.524;9.044;2023-04-06T05:58:19;98048.47;;;3.64;50.78
13387;BME280;6763;48.524;9.044;2023-04-06T06:00:44;98044.31;;;3.72;50.42
13387;BME280;6763;48.524;9.044;2023-04-06T06:03:11;98043.56;;;3.81;49.88
13387;BME280;6763;48.524;9.044;2023-04-06T06:05:37;98051.34;;;3.90;50.34
13387;BME280;6763;48.524;9.044;2023-04-06T06:08:02;98053.16;;;3.99;49.96
13387;BME280;6763;48.524;9.044;2023-04-06T06:10:28;98054.09;;;4.07;49.89
13387;BME280;6763;48.524;9.044;2023-04-06T06:12:53;98057.63;;;4.16;49.34
13387;BME280;6763;48.524;9.044;2023-04-06T06:15:18;98055.13;;;4.25;49.14
13387;BME280;6763;48.524;9.044;2023-04-06T06:17:44;98054.41;;;4.35;48.68
13387;BME280;6763;48.524;9.044;2023-04-06T06:20:09;98062.16;;;4.42;48.41
13387;BME280;6763;48.524;9.044;2023-04-06T06:22:35;98057.97;;;4.50;47.83
13387;BME280;6763;48.524;9.044;2023-04-06T06:25:00;98057.19;;;4.58;48.39
13387;BME280;6763;48.524;9.044;2023-04-06T06:27:26;98054.72;;;4.69;48.13
13387;BME280;6763;48.524;9.044;2023-04-06T06:29:51;98052.25;;;4.79;47.85
13387;BME280;6763;48.524;9.044;2023-04-06T06:32:17;98054.91;;;4.91;47.90
13387;BME280;6763;48.524;9.044;2023-04-06T06:34:43;98055.84;;;5.03;47.62
13387;BME280;6763;48.524;9.044;2023-04-06T06:37:08;98051.63;;;5.14;47.38
13387;BME280;6763;48.524;9.044;2023-04-06T06:39:33;98046.59;;;5.24;46.99
13387;BME280;6763;48.524;9.044;2023-04-06T06:41:59;98053.50;;;5.37;46.84
13387;BME280;6763;48.524;9.044;2023-04-06T06:44:28;98047.56;;;5.47;46.62
13387;BME280;6763;48.524;9.044;2023-04-06T06:46:53;98056.19;;;5.57;46.32
13387;BME280;6763;48.524;9.044;2023-04-06T06:49:19;98052.81;;;5.67;46.25
13387;BME280;6763;48.524;9.044;2023-04-06T06:51:44;98047.75;;;5.79;45.75
13387;BME280;6763;48.524;9.044;2023-04-06T06:54:12;98054.69;;;5.92;45.68
13387;BME280;6763;48.524;9.044;2023-04-06T06:56:38;98052.16;;;6.06;45.59
13387;BME280;6763;48.524;9.044;2023-04-06T06:59:04;98052.19;;;6.18;45.15
13387;BME280;6763;48.524;9.044;2023-04-06T07:01:32;98044.53;;;6.30;44.91
13387;BME280;6763;48.524;9.044;2023-04-06T07:03:58;98052.25;;;6.42;44.58
13387;BME280;6763;48.524;9.044;2023-04-06T07:06:23;98047.97;;;6.52;44.13
13387;BME280;6763;48.524;9.044;2023-04-06T07:08:49;98050.56;;;6.67;44.00
13387;BME280;6763;48.524;9.044;2023-04-06T07:11:14;98051.47;;;6.79;43.90
13387;BME280;6763;48.524;9.044;2023-04-06T07:13:40;98046.31;;;6.95;43.36
13387;BME280;6763;48.524;9.044;2023-04-06T07:16:05;98048.88;;;7.07;43.31
13387;BME280;6763;48.524;9.044;2023-04-06T07:18:30;98049.72;;;7.18;43.12
13387;BME280;6763;48.524;9.044;2023-04-06T07:20:56;98045.38;;;7.29;42.84
13387;BME280;6763;48.524;9.044;2023-04-06T07:23:21;98049.66;;;7.42;42.89
13387;BME280;6763;48.524;9.044;2023-04-06T07:25:47;98052.22;;;7.56;42.77
13387;BME280;6763;48.524;9.044;2023-04-06T07:28:12;98051.31;;;7.69;42.83
13387;BME280;6763;48.524;9.044;2023-04-06T07:30:38;98055.59;;;7.83;42.74
13387;BME280;6763;48.524;9.044;2023-04-06T07:33:03;98050.34;;;7.94;42.59
13387;BME280;6763;48.524;9.044;2023-04-06T07:35:30;98044.31;;;8.08;42.62
13387;BME280;6763;48.524;9.044;2023-04-06T07:37:56;98041.66;;;8.22;42.13
13387;BME280;6763;48.524;9.044;2023-04-06T07:40:22;98046.75;;;8.39;42.03
13387;BME280;6763;48.524;9.044;2023-04-06T07:42:47;98047.53;;;8.50;41.20
13387;BME280;6763;48.524;9.044;2023-04-06T07:45:13;98036.25;;;8.61;41.04
13387;BME280;6763;48.524;9.044;2023-04-06T07:47:39;98041.34;;;8.75;40.53
13387;BME280;6763;48.524;9.044;2023-04-06T07:50:05;98037.75;;;8.90;39.94
13387;BME280;6763;48.524;9.044;2023-04-06T07:52:30;98041.09;;;9.07;40.24
13387;BME280;6763;48.524;9.044;2023-04-06T07:54:59;98038.34;;;9.25;39.81
13387;BME280;6763;48.524;9.044;2023-04-06T07:57:25;98035.59;;;9.40;39.12
13387;BME280;6763;48.524;9.044;2023-04-06T07:59:50;98027.72;;;9.54;38.99
13387;BME280;6763;48.524;9.044;2023-04-06T08:02:16;98030.13;;;9.69;39.08
13387;BME280;6763;48.524;9.044;2023-04-06T08:04:41;98027.31;;;9.87;38.05
13387;BME280;6763;48.524;9.044;2023-04-06T08:07:07;98024.50;;;10.05;38.03
13387;BME280;6763;48.524;9.044;2023-04-06T08:09:33;98021.75;;;10.22;37.81
13387;BME280;6763;48.524;9.044;2023-04-06T08:11:58;98030.16;;;10.37;37.55
13387;BME280;6763;48.524;9.044;2023-04-06T08:14:23;98024.72;;;10.54;36.35
13387;BME280;6763;48.524;9.044;2023-04-06T08:16:49;98021.94;;;10.68;36.25
13387;BME280;6763;48.524;9.044;2023-04-06T08:19:15;98020.84;;;10.84;36.39
13387;BME280;6763;48.524;9.044;2023-04-06T08:21:42;98021.31;;;11.05;36.21
13387;BME280;6763;48.524;9.044;2023-04-06T08:24:08;98019.28;;;11.24;35.74
13387;BME280;6763;48.524;9.044;2023-04-06T08:26:33;98008.72;;;11.35;35.29
13387;BME280;6763;48.524;9.044;2023-04-06T08:28:59;98012.84;;;11.45;34.60
13387;BME280;6763;48.524;9.044;2023-04-06T08:31:24;98019.50;;;11.58;34.64
13387;BME280;6763;48.524;9.044;2023-04-06T08:33:51;98013.19;;;11.72;34.00
13387;BME280;6763;48.524;9.044;2023-04-06T08:36:16;98007.75;;;11.86;33.30
13387;BME280;6763;48.524;9.044;2023-04-06T08:38:45;98004.88;;;12.00;33.54
13387;BME280;6763;48.524;9.044;2023-04-06T08:41:12;98003.69;;;12.16;33.34
13387;BME280;6763;48.524;9.044;2023-04-06T08:43:49;98012.75;;;12.35;32.56
13387;BME280;6763;48.524;9.044;2023-04-06T08:46:15;98008.13;;;12.49;32.27
13387;BME280;6763;48.524;9.044;2023-04-06T08:48:42;98004.41;;;12.59;32.62
13387;BME280;6763;48.524;9.044;2023-04-06T08:51:09;98000.78;;;12.68;32.02
13387;BME280;6763;48.524;9.044;2023-04-06T08:53:35;98001.34;;;12.79;31.47
13387;BME280;6763;48.524;9.044;2023-04-06T08:56:01;97999.34;;;12.91;31.20
13387;BME280;6763;48.524;9.044;2023-04-06T08:58:28;97987.69;;;13.07;31.08
13387;BME280;6763;48.524;9.044;2023-04-06T09:00:57;97990.78;;;13.22;30.80
13387;BME280;6763;48.524;9.044;2023-04-06T09:03:25;97984.25;;;13.39;30.48
13387;BME280;6763;48.524;9.044;2023-04-06T09:05:51;97978.63;;;13.54;30.08
13387;BME280;6763;48.524;9.044;2023-04-06T09:08:16;97978.41;;;13.62;29.46
13387;BME280;6763;48.524;9.044;2023-04-06T09:10:42;97976.38;;;13.73;29.54
13387;BME280;6763;48.524;9.044;2023-04-06T09:13:08;97969.72;;;13.94;29.40
13387;BME280;6763;48.524;9.044;2023-04-06T09:15:34;97977.75;;;14.15;28.40
13387;BME280;6763;48.524;9.044;2023-04-06T09:18:00;97973.72;;;14.35;27.80
13387;BME280;6763;48.524;9.044;2023-04-06T09:20:26;97974.91;;;14.52;26.27
13387;BME280;6763;48.524;9.044;2023-04-06T09:22:54;97972.94;;;14.60;26.26
13387;BME280;6763;48.524;9.044;2023-04-06T09:25:21;97981.28;;;14.70;26.18
13387;BME280;6763;48.524;9.044;2023-04-06T09:27:48;97986.91;;;14.84;25.47
13387;BME280;6763;48.524;9.044;2023-04-06T09:30:23;97976.97;;;14.97;25.56
13387;BME280;6763;48.524;9.044;2023-04-06T09:32:51;97974.56;;;15.15;25.71
13387;BME280;6763;48.524;9.044;2023-04-06T09:35:18;97977.19;;;15.40;25.62
13387;BME280;6763;48.524;9.044;2023-04-06T09:37:46;97977.56;;;15.79;25.60
13387;BME280;6763;48.524;9.044;2023-04-06T09:40:13;97966.06;;;16.29;25.00
13387;BME280;6763;48.524;9.044;2023-04-06T09:42:42;97960.88;;;16.94;24.25
13387;BME280;6763;48.524;9.044;2023-04-06T09:45:07;97952.75;;;17.62;23.08
13387;BME280;6763;48.524;9.044;2023-04-06T09:47:35;97956.00;;;18.25;21.61
13387;BME280;6763;48.524;9.044;2023-04-06T09:50:02;97946.16;;;18.84;20.60
13387;BME280;6763;48.524;9.044;2023-04-06T09:52:40;97954.63;;;19.42;20.12
13387;BME280;6763;48.524;9.044;2023-04-06T09:55:07;97934.81;;;20.02;19.51
13387;BME280;6763;48.524;9.044;2023-04-06T09:57:52;97944.00;;;20.58;18.52
13387;BME280;6763;48.524;9.044;2023-04-06T10:00:22;97936.56;;;20.95;17.99
13387;BME280;6763;48.524;9.044;2023-04-06T10:03:11;97935.38;;;21.31;17.75
13387;BME280;6763;48.524;9.044;2023-04-06T10:08:12;97932.31;;;21.67;16.78
13387;BME280;6763;48.524;9.044;2023-04-06T10:10:39;97926.19;;;21.66;15.87
13387;BME280;6763;48.524;9.044;2023-04-06T10:13:05;97932.97;;;21.56;15.71
13387;BME280;6763;48.524;9.044;2023-04-06T10:15:31;97922.16;;;21.75;15.58
13387;BME280;6763;48.524;9.044;2023-04-06T10:17:58;97925.56;;;22.19;15.26
13387;BME280;6763;48.524;9.044;2023-04-06T10:22:57;97928.81;;;23.17;14.88
13387;BME280;6763;48.524;9.044;2023-04-06T10:25:32;97909.91;;;23.50;13.74
13387;BME280;6763;48.524;9.044;2023-04-06T10:28:08;97911.47;;;23.77;13.58
13387;BME280;6763;48.524;9.044;2023-04-06T10:30:35;97908.81;;;23.90;13.39
13387;BME280;6763;48.524;9.044;2023-04-06T10:33:18;97911.47;;;23.77;12.70
13387;BME280;6763;48.524;9.044;2023-04-06T10:35:44;97916.75;;;23.65;12.91
13387;BME280;6763;48.524;9.044;2023-04-06T10:38:10;97913.06;;;23.55;13.22
13387;BME280;6763;48.524;9.044;2023-04-06T10:40:39;97919.41;;;23.39;13.42
13387;BME280;6763;48.524;9.044;2023-04-06T10:43:18;97909.63;;;23.27;13.55
13387;BME280;6763;48.524;9.044;2023-04-06T10:45:44;97912.78;;;23.20;13.93
13387;BME280;6763;48.524;9.044;2023-04-06T10:48:14;97911.81;;;23.08;14.08
13387;BME280;6763;48.524;9.044;2023-04-06T10:50:42;97907.84;;;22.89;14.31
13387;BME280;6763;48.524;9.044;2023-04-06T10:53:08;97903.94;;;22.81;14.32
13387;BME280;6763;48.524;9.044;2023-04-06T10:55:34;97912.19;;;22.90;14.15
13387;BME280;6763;48.524;9.044;2023-04-06T10:57:59;97898.13;;;22.89;14.20
13387;BME280;6763;48.524;9.044;2023-04-06T11:00:25;97904.06;;;22.93;13.63
13387;BME280;6763;48.524;9.044;2023-04-06T11:02:51;97903.50;;;22.61;12.88
13387;BME280;6763;48.524;9.044;2023-04-06T11:05:17;97904.47;;;22.19;13.08
13387;BME280;6763;48.524;9.044;2023-04-06T11:07:44;97900.66;;;22.23;13.19
13387;BME280;6763;48.524;9.044;2023-04-06T11:10:09;97898.91;;;22.50;12.93
13387;BME280;6763;48.524;9.044;2023-04-06T11:12:35;97904.84;;;22.80;12.13
13387;BME280;6763;48.524;9.044;2023-04-06T11:15:02;97905.94;;;22.91;11.29
13387;BME280;6763;48.524;9.044;2023-04-06T11:17:30;97897.72;;;22.82;10.90
13387;BME280;6763;48.524;9.044;2023-04-06T11:19:57;97894.63;;;22.76;11.08
13387;BME280;6763;48.524;9.044;2023-04-06T11:22:23;97894.19;;;22.55;10.91
13387;BME280;6763;48.524;9.044;2023-04-06T11:24:50;97895.53;;;22.48;10.74
13387;BME280;6763;48.524;9.044;2023-04-06T11:27:17;97885.44;;;22.55;10.73
13387;BME280;6763;48.524;9.044;2023-04-06T11:29:43;97887.19;;;22.68;11.03
13387;BME280;6763;48.524;9.044;2023-04-06T11:32:09;97891.75;;;22.52;11.42
13387;BME280;6763;48.524;9.044;2023-04-06T11:34:39;97885.38;;;22.42;11.13
13387;BME280;6763;48.524;9.044;2023-04-06T11:37:10;97883.22;;;22.35;11.34
13387;BME280;6763;48.524;9.044;2023-04-06T11:39:52;97879.75;;;22.34;11.56
13387;BME280;6763;48.524;9.044;2023-04-06T11:42:27;97883.38;;;22.19;11.70
13387;BME280;6763;48.524;9.044;2023-04-06T11:44:59;97877.25;;;22.18;11.71
13387;BME280;6763;48.524;9.044;2023-04-06T11:47:35;97868.84;;;22.26;11.69
13387;BME280;6763;48.524;9.044;2023-04-06T11:50:11;97876.19;;;22.35;11.26
13387;BME280;6763;48.524;9.044;2023-04-06T11:52:38;97871.81;;;22.48;10.88
13387;BME280;6763;48.524;9.044;2023-04-06T11:55:15;97873.81;;;22.71;11.08
13387;BME280;6763;48.524;9.044;2023-04-06T11:57:41;97864.09;;;22.72;11.06
13387;BME280;6763;48.524;9.044;2023-04-06T12:00:09;97869.06;;;22.76;11.01
13387;BME280;6763;48.524;9.044;2023-04-06T12:02:38;97854.66;;;22.95;11.12
13387;BME280;6763;48.524;9.044;2023-04-06T12:05:05;97859.97;;;23.32;10.83
13387;BME280;6763;48.524;9.044;2023-04-06T12:07:31;97859.69;;;23.37;11.13
13387;BME280;6763;48.524;9.044;2023-04-06T12:09:58;97856.38;;;23.33;11.17
13387;BME280;6763;48.524;9.044;2023-04-06T12:12:24;97850.44;;;23.30;11.20
13387;BME280;6763;48.524;9.044;2023-04-06T12:14:49;97845.06;;;23.31;11.29
13387;BME280;6763;48.524;9.044;2023-04-06T12:17:14;97839.94;;;23.55;11.41
13387;BME280;6763;48.524;9.044;2023-04-06T12:19:40;97851.16;;;23.95;10.84
13387;BME280;6763;48.524;9.044;2023-04-06T12:22:05;97832.34;;;24.12;10.83
13387;BME280;6763;48.524;9.044;2023-04-06T12:24:31;97840.53;;;24.07;10.54
13387;BME280;6763;48.524;9.044;2023-04-06T12:26:56;97841.75;;;23.91;10.52
13387;BME280;6763;48.524;9.044;2023-04-06T12:29:23;97836.72;;;23.75;10.23
13387;BME280;6763;48.524;9.044;2023-04-06T12:31:49;97832.28;;;23.76;10.48
13387;BME280;6763;48.524;9.044;2023-04-06T12:34:14;97829.75;;;23.62;10.27
13387;BME280;6763;48.524;9.044;2023-04-06T12:36:39;97836.09;;;23.21;9.48
13387;BME280;6763;48.524;9.044;2023-04-06T12:39:05;97838.09;;;23.05;10.49
13387;BME280;6763;48.524;9.044;2023-04-06T12:41:30;97839.13;;;22.90;10.58
13387;BME280;6763;48.524;9.044;2023-04-06T12:43:56;97837.44;;;22.89;10.03
13387;BME280;6763;48.524;9.044;2023-04-06T12:46:22;97829.84;;;23.35;9.81
13387;BME280;6763;48.524;9.044;2023-04-06T12:48:48;97831.53;;;23.86;9.73
13387;BME280;6763;48.524;9.044;2023-04-06T12:51:13;97823.72;;;24.21;9.86
13387;BME280;6763;48.524;9.044;2023-04-06T12:53:39;97822.28;;;24.41;9.74
13387;BME280;6763;48.524;9.044;2023-04-06T12:56:11;97824.56;;;24.69;9.40
13387;BME280;6763;48.524;9.044;2023-04-06T12:58:37;97815.50;;;24.84;9.59
13387;BME280;6763;48.524;9.044;2023-04-06T13:01:06;97817.84;;;25.11;9.49
13387;BME280;6763;48.524;9.044;2023-04-06T13:03:31;97822.72;;;25.39;9.04
13387;BME280;6763;48.524;9.044;2023-04-06T13:05:59;97818.69;;;25.22;8.84
13387;BME280;6763;48.524;9.044;2023-04-06T13:08:25;97808.38;;;25.42;9.20
13387;BME280;6763;48.524;9.044;2023-04-06T13:10:51;97801.38;;;25.96;9.14
13387;BME280;6763;48.524;9.044;2023-04-06T13:13:23;97808.47;;;26.18;8.82
13387;BME280;6763;48.524;9.044;2023-04-06T13:15:48;97809.34;;;26.50;8.50
13387;BME280;6763;48.524;9.044;2023-04-06T13:18:14;97798.88;;;26.69;8.58